createdAt,value
2022-09-15T00:01:37.385Z,2.20
2022-09-15T00:03:58.899Z,2.83
2022-09-15T00:06:20.341Z,2.40
2022-09-15T00:08:42.035Z,4.18
2022-09-15T00:11:19.548Z,3.10
2022-09-15T00:13:41.405Z,3.70
2022-09-15T00:16:03.842Z,3.55
2022-09-15T00:18:25.694Z,4.30
2022-09-15T00:20:47.578Z,4.47
2022-09-15T00:23:10.664Z,4.30
2022-09-15T00:25:32.056Z,2.67
2022-09-15T00:27:53.478Z,2.95
2022-09-15T00:30:15.070Z,3.13
2022-09-15T00:32:36.502Z,4.22
2022-09-15T00:34:57.982Z,3.78
2022-09-15T00:37:19.625Z,3.30
2022-09-15T00:39:41.063Z,3.75
2022-09-15T00:42:03.912Z,5.25
2022-09-15T00:44:25.228Z,5.15
2022-09-15T00:47:09.364Z,10.02
2022-09-15T00:49:35.350Z,5.53
2022-09-15T00:52:17.118Z,5.72
2022-09-15T00:55:08.396Z,7.85
2022-09-15T00:57:42.637Z,9.65
2022-09-15T01:00:08.577Z,8.95
2022-09-15T01:02:34.239Z,9.45
2022-09-15T01:04:58.493Z,8.77
2022-09-15T01:07:27.428Z,10.25
2022-09-15T01:09:58.713Z,11.57
2022-09-15T01:12:21.776Z,14.60
2022-09-15T01:14:43.196Z,10.70
2022-09-15T01:17:10.293Z,12.68
2022-09-15T01:19:47.491Z,14.18
2022-09-15T01:22:14.785Z,13.13
2022-09-15T01:24:51.715Z,13.45
2022-09-15T01:27:42.521Z,22.02
2022-09-15T01:30:19.378Z,33.85
2022-09-15T01:33:05.574Z,30.00
2022-09-15T01:35:50.217Z,22.50
2022-09-15T01:38:42.067Z,16.95
2022-09-15T01:41:12.561Z,16.75
2022-09-15T01:43:39.498Z,17.15
2022-09-15T01:46:03.698Z,17.40
2022-09-15T01:48:28.133Z,17.95
2022-09-15T01:50:54.704Z,16.40
2022-09-15T01:53:20.034Z,16.95
2022-09-15T01:55:46.813Z,16.63
2022-09-15T01:58:08.654Z,16.23
2022-09-15T02:00:34.003Z,16.00
2022-09-15T02:03:00.882Z,19.70
2022-09-15T02:05:30.201Z,22.00
2022-09-15T02:07:51.541Z,21.27
2022-09-15T02:10:29.629Z,21.40
2022-09-15T02:13:19.731Z,27.83
2022-09-15T02:15:48.057Z,30.17
2022-09-15T02:18:14.188Z,31.40
2022-09-15T02:20:48.509Z,31.07
2022-09-15T02:23:18.820Z,36.97
2022-09-15T02:25:52.731Z,33.83
2022-09-15T02:28:18.869Z,40.97
2022-09-15T02:30:43.239Z,42.30
2022-09-15T02:33:08.277Z,44.30
2022-09-15T02:35:32.817Z,34.03
2022-09-15T02:37:55.241Z,29.73
2022-09-15T02:40:16.785Z,30.13
2022-09-15T02:42:39.274Z,26.47
2022-09-15T02:45:01.481Z,28.60
2022-09-15T02:47:23.972Z,32.60
2022-09-15T02:49:45.477Z,39.20
2022-09-15T02:52:07.366Z,31.63
2022-09-15T02:54:28.866Z,22.87
2022-09-15T02:56:50.408Z,24.60
2022-09-15T02:59:11.822Z,28.00
2022-09-15T03:01:34.803Z,20.13
2022-09-15T03:03:56.465Z,14.83
2022-09-15T03:06:17.920Z,19.30
2022-09-15T03:08:39.615Z,20.30
2022-09-15T03:11:01.010Z,21.20
2022-09-15T03:13:22.902Z,23.37
2022-09-15T03:15:44.315Z,20.87
2022-09-15T03:18:05.773Z,20.37
2022-09-15T03:20:28.608Z,22.03
2022-09-15T03:22:50.331Z,19.93
2022-09-15T03:25:12.195Z,19.97
2022-09-15T03:27:36.933Z,23.60
2022-09-15T03:29:58.529Z,22.17
2022-09-15T03:32:19.948Z,19.87
2022-09-15T03:34:41.693Z,23.93
2022-09-15T03:37:03.159Z,20.70
2022-09-15T03:39:24.645Z,22.53
2022-09-15T03:41:46.059Z,21.37
2022-09-15T03:44:07.514Z,22.17
2022-09-15T03:46:29.491Z,19.43
2022-09-15T03:48:50.945Z,21.87
2022-09-15T03:51:12.337Z,19.17
2022-09-15T03:53:35.254Z,16.53
2022-09-15T03:56:07.674Z,19.73
2022-09-15T03:58:30.955Z,19.20
2022-09-15T04:00:52.500Z,20.03
2022-09-15T04:03:14.231Z,17.20
2022-09-15T04:05:36.473Z,20.30
2022-09-15T04:07:57.900Z,14.67
2022-09-15T04:10:19.340Z,18.07
2022-09-15T04:12:40.741Z,16.57
2022-09-15T04:15:02.441Z,16.37
2022-09-15T04:17:24.030Z,16.47
2022-09-15T04:19:45.627Z,21.47
2022-09-15T04:22:07.104Z,17.17
2022-09-15T04:24:28.562Z,18.60
2022-09-15T04:26:49.994Z,15.40
2022-09-15T04:29:14.261Z,16.17
2022-09-15T04:31:35.731Z,13.10
2022-09-15T04:33:57.264Z,16.93
2022-09-15T04:36:21.184Z,18.03
2022-09-15T04:38:43.177Z,18.07
2022-09-15T04:41:05.243Z,13.47
2022-09-15T04:43:27.150Z,18.00
2022-09-15T04:45:48.997Z,16.83
2022-09-15T04:48:10.415Z,18.33
2022-09-15T04:50:32.412Z,19.07
2022-09-15T04:52:53.895Z,21.40
2022-09-15T04:55:15.386Z,16.93
2022-09-15T04:57:36.781Z,17.97
2022-09-15T04:59:58.201Z,12.50
2022-09-15T05:02:19.621Z,13.63
2022-09-15T05:04:41.179Z,16.07
2022-09-15T05:07:02.674Z,14.37
2022-09-15T05:09:24.269Z,16.07
2022-09-15T05:11:45.669Z,21.90
2022-09-15T05:14:08.188Z,23.83
2022-09-15T05:16:30.102Z,14.93
2022-09-15T05:18:55.185Z,18.80
2022-09-15T05:21:19.416Z,15.60
2022-09-15T05:23:41.132Z,21.43
2022-09-15T05:26:05.646Z,13.37
2022-09-15T05:28:27.998Z,13.17
2022-09-15T05:30:49.589Z,19.50
2022-09-15T05:33:11.065Z,15.90
2022-09-15T05:35:32.768Z,13.73
2022-09-15T05:37:54.167Z,16.10
2022-09-15T05:40:15.957Z,15.57
2022-09-15T05:42:37.470Z,13.30
2022-09-15T05:44:58.927Z,15.73
2022-09-15T05:47:20.424Z,13.13
2022-09-15T05:49:41.847Z,17.60
2022-09-15T05:52:03.757Z,19.07
2022-09-15T05:54:27.333Z,16.03
2022-09-15T05:56:48.753Z,15.90
2022-09-15T05:59:10.181Z,13.40
2022-09-15T06:01:31.711Z,14.40
2022-09-15T06:03:54.210Z,17.93
2022-09-15T06:06:16.125Z,17.50
2022-09-15T06:08:44.264Z,22.40
2022-09-15T06:11:15.579Z,16.57
2022-09-15T06:13:37.726Z,16.52
2022-09-15T06:16:22.839Z,15.20
2022-09-15T06:18:44.383Z,13.18
2022-09-15T06:21:08.428Z,17.50
2022-09-15T06:23:29.868Z,14.57
2022-09-15T06:25:51.274Z,12.18
2022-09-15T06:28:12.732Z,14.50
2022-09-15T06:30:34.209Z,13.95
2022-09-15T06:32:55.642Z,13.77
2022-09-15T06:35:17.367Z,18.33
2022-09-15T06:37:38.801Z,18.75
2022-09-15T06:40:00.920Z,17.30
2022-09-15T06:42:22.394Z,16.48
2022-09-15T06:44:43.935Z,15.75
2022-09-15T06:47:05.432Z,16.40
2022-09-15T06:49:26.850Z,12.95
2022-09-15T06:51:48.461Z,18.77
2022-09-15T06:54:09.899Z,17.60
2022-09-15T06:56:35.835Z,19.45
2022-09-15T06:59:00.218Z,18.67
2022-09-15T07:01:25.176Z,28.67
2022-09-15T07:03:46.736Z,20.65
2022-09-15T07:06:09.417Z,22.50
2022-09-15T07:08:30.850Z,17.73
2022-09-15T07:10:52.447Z,20.08
2022-09-15T07:13:13.909Z,18.90
2022-09-15T07:15:35.359Z,16.67
2022-09-15T07:17:56.843Z,16.90
2022-09-15T07:20:18.246Z,16.63
2022-09-15T07:22:39.870Z,15.80
2022-09-15T07:25:01.274Z,12.85
2022-09-15T07:27:26.753Z,15.52
2022-09-15T07:29:48.155Z,12.88
2022-09-15T07:32:09.682Z,14.30
2022-09-15T07:34:31.304Z,11.85
2022-09-15T07:36:52.723Z,14.13
2022-09-15T07:39:14.144Z,13.00
2022-09-15T07:41:35.590Z,13.60
2022-09-15T07:43:59.621Z,14.05
2022-09-15T07:46:23.142Z,13.05
2022-09-15T07:48:46.285Z,12.07
2022-09-15T07:51:07.695Z,14.20
2022-09-15T07:53:30.342Z,13.07
2022-09-15T07:55:53.400Z,13.23
2022-09-15T07:58:14.820Z,11.75
2022-09-15T08:00:38.737Z,15.00
2022-09-15T08:03:00.283Z,15.52
2022-09-15T08:05:23.599Z,9.13
2022-09-15T08:07:45.107Z,15.48
2022-09-15T08:10:06.948Z,12.00
2022-09-15T08:12:30.680Z,11.68
2022-09-15T08:14:52.111Z,12.30
2022-09-15T08:17:13.530Z,15.75
2022-09-15T08:19:35.902Z,12.45
2022-09-15T08:21:57.606Z,13.95
2022-09-15T08:24:19.283Z,13.90
2022-09-15T08:26:42.159Z,12.48
2022-09-15T08:29:03.863Z,11.23
2022-09-15T08:31:25.477Z,10.52
2022-09-15T08:33:51.855Z,9.88
2022-09-15T08:36:13.489Z,10.85
2022-09-15T08:38:34.988Z,13.00
2022-09-15T08:41:03.202Z,8.27
2022-09-15T08:43:27.642Z,13.18
2022-09-15T08:45:58.838Z,8.23
2022-09-15T08:48:27.602Z,8.52
2022-09-15T08:50:52.346Z,9.02
2022-09-15T08:53:32.426Z,12.30
2022-09-15T08:56:00.281Z,8.43
2022-09-15T08:58:24.657Z,13.15
2022-09-15T09:00:51.703Z,7.35
2022-09-15T09:03:28.449Z,9.65
2022-09-15T09:05:58.437Z,8.65
2022-09-15T09:08:35.169Z,9.05
2022-09-15T09:11:18.343Z,9.27
2022-09-15T09:13:47.305Z,9.73
2022-09-15T09:16:44.168Z,10.23
2022-09-15T09:19:30.073Z,10.48
2022-09-15T09:22:01.801Z,6.50
2022-09-15T09:24:29.407Z,7.38
2022-09-15T09:26:54.386Z,4.90
2022-09-15T09:29:18.819Z,6.95
2022-09-15T09:31:41.713Z,6.63
2022-09-15T09:34:18.336Z,7.03
2022-09-15T09:36:39.946Z,8.15
2022-09-15T09:39:02.534Z,11.52
2022-09-15T09:41:27.369Z,9.75
2022-09-15T09:43:49.503Z,8.55
2022-09-15T09:46:15.052Z,8.73
2022-09-15T09:48:36.602Z,7.03
2022-09-15T09:50:58.100Z,9.40
2022-09-15T09:53:32.757Z,8.52
2022-09-15T09:56:02.195Z,7.05
2022-09-15T09:58:25.572Z,6.57
2022-09-15T10:00:47.530Z,6.90
2022-09-15T10:03:20.531Z,7.45
2022-09-15T10:05:43.595Z,11.32
2022-09-15T10:08:05.077Z,6.30
2022-09-15T10:10:32.358Z,9.10
2022-09-15T10:12:57.497Z,11.05
2022-09-15T10:15:28.020Z,7.70
2022-09-15T10:17:51.731Z,6.53
2022-09-15T10:20:47.809Z,9.13
2022-09-15T10:23:17.953Z,7.07
2022-09-15T10:25:57.964Z,4.45
2022-09-15T10:28:25.820Z,9.02
2022-09-15T10:31:16.030Z,4.60
2022-09-15T10:33:39.460Z,6.07
2022-09-15T10:36:05.710Z,5.07
2022-09-15T10:39:06.689Z,9.48
2022-09-15T10:41:31.055Z,6.43
2022-09-15T10:44:22.849Z,5.05
2022-09-15T10:47:17.710Z,24.27
2022-09-15T10:49:56.606Z,9.60
2022-09-15T10:52:43.758Z,13.40
2022-09-15T10:55:16.534Z,36.50
2022-09-15T10:57:56.010Z,9.30
2022-09-15T11:00:22.925Z,6.97
2022-09-15T11:02:53.397Z,5.00
2022-09-15T11:05:23.030Z,13.15
2022-09-15T11:07:50.540Z,36.13
2022-09-15T11:10:25.420Z,5.72
2022-09-15T11:12:57.984Z,4.35
2022-09-15T11:15:30.827Z,4.70
2022-09-15T11:18:11.469Z,5.03
2022-09-15T11:20:39.226Z,5.75
2022-09-15T11:23:21.551Z,5.38
2022-09-15T11:25:47.694Z,6.20
2022-09-15T11:28:18.648Z,4.85
2022-09-15T11:30:48.051Z,12.57
2022-09-15T11:33:20.107Z,6.68
2022-09-15T11:35:53.887Z,5.43
2022-09-15T11:38:34.423Z,6.80
2022-09-15T11:41:08.942Z,24.73
2022-09-15T11:43:37.489Z,5.00
2022-09-15T11:46:01.648Z,7.50
2022-09-15T11:48:43.542Z,19.67
2022-09-15T11:51:07.567Z,15.10
2022-09-15T11:53:46.925Z,9.93
2022-09-15T11:56:32.930Z,4.70
2022-09-15T11:59:01.280Z,5.07
2022-09-15T12:01:32.517Z,5.35
2022-09-15T12:04:05.458Z,5.30
2022-09-15T12:06:32.210Z,7.80
2022-09-15T12:08:58.294Z,14.07
2022-09-15T12:11:23.145Z,15.77
2022-09-15T12:13:45.354Z,7.18
2022-09-15T12:16:07.566Z,7.05
2022-09-15T12:18:53.488Z,7.75
2022-09-15T12:21:36.109Z,4.55
2022-09-15T12:24:13.669Z,3.83
2022-09-15T12:26:35.756Z,7.25
2022-09-15T12:29:02.423Z,4.80
2022-09-15T12:31:35.826Z,5.68
2022-09-15T12:34:22.161Z,5.68
2022-09-15T12:36:46.979Z,8.85
2022-09-15T12:39:22.780Z,11.05
2022-09-15T12:41:49.506Z,20.77
2022-09-15T12:44:34.415Z,14.00
2022-09-15T12:46:58.928Z,6.20
2022-09-15T12:49:27.667Z,5.93
2022-09-15T12:51:50.810Z,7.55
2022-09-15T12:54:24.049Z,4.35
2022-09-15T12:56:54.209Z,5.13
2022-09-15T12:59:15.953Z,21.75
2022-09-15T13:01:48.665Z,3.08
2022-09-15T13:04:10.047Z,4.22
2022-09-15T13:06:34.266Z,7.70
2022-09-15T13:09:25.522Z,4.93
2022-09-15T13:11:51.094Z,6.68
2022-09-15T13:14:26.115Z,5.00
2022-09-15T13:17:06.622Z,3.33
2022-09-15T13:19:35.838Z,4.07
2022-09-15T13:22:12.099Z,2.47
2022-09-15T13:24:52.451Z,3.42
2022-09-15T13:27:19.550Z,3.67
2022-09-15T13:29:47.112Z,3.60
2022-09-15T13:32:26.985Z,3.22
2022-09-15T13:35:15.925Z,2.60
2022-09-15T13:38:15.126Z,2.03
2022-09-15T13:41:07.895Z,3.05
2022-09-15T13:43:50.760Z,3.13
2022-09-15T13:46:30.205Z,2.22
2022-09-15T13:49:19.776Z,1.20
2022-09-15T13:51:46.937Z,3.90
2022-09-15T13:54:19.050Z,5.15
2022-09-15T13:56:41.414Z,2.60
2022-09-15T13:59:11.589Z,4.07
2022-09-15T14:01:39.019Z,2.72
2022-09-15T14:04:09.270Z,4.75
2022-09-15T14:06:37.109Z,6.70
2022-09-15T14:09:04.209Z,2.08
2022-09-15T14:11:30.314Z,1.98
2022-09-15T14:13:52.653Z,1.48
2022-09-15T14:16:34.814Z,2.40
2022-09-15T14:18:58.603Z,3.22
2022-09-15T14:21:22.925Z,1.35
2022-09-15T14:23:57.314Z,3.05
2022-09-15T14:26:23.470Z,3.10
2022-09-15T14:29:05.786Z,4.05
2022-09-15T14:31:48.871Z,1.48
2022-09-15T14:34:21.389Z,1.35
2022-09-15T14:36:42.967Z,3.53
2022-09-15T14:39:23.702Z,3.35
2022-09-15T14:41:46.192Z,2.72
2022-09-15T14:47:18.113Z,2.72
2022-09-15T14:49:39.848Z,3.90
2022-09-15T14:52:01.999Z,2.60
2022-09-15T14:54:32.113Z,2.10
2022-09-15T14:56:59.472Z,1.92
2022-09-15T14:59:38.884Z,1.45
2022-09-15T15:02:24.580Z,4.45
2022-09-15T15:04:57.484Z,3.92
2022-09-15T15:07:26.392Z,2.33
2022-09-15T15:10:03.619Z,4.97
2022-09-15T15:12:40.412Z,2.65
2022-09-15T15:15:02.989Z,2.20
2022-09-15T15:17:30.378Z,3.00
2022-09-15T15:19:58.935Z,4.70
2022-09-15T15:22:21.306Z,4.80
2022-09-15T15:24:44.438Z,3.25
2022-09-15T15:27:24.553Z,2.35
2022-09-15T15:29:47.131Z,2.88
2022-09-15T15:32:14.599Z,4.47
2022-09-15T15:34:36.453Z,4.00
2022-09-15T15:37:25.243Z,3.72
2022-09-15T15:39:47.568Z,4.15
2022-09-15T15:42:15.837Z,2.63
2022-09-15T15:44:37.231Z,4.57
2022-09-15T15:47:22.699Z,2.83
2022-09-15T15:50:11.719Z,3.25
2022-09-15T15:52:25.489Z,3.28
2022-09-15T15:54:46.897Z,2.80
2022-09-15T15:57:23.622Z,4.00
2022-09-15T15:59:46.339Z,2.55
2022-09-15T16:02:10.869Z,3.28
2022-09-15T16:04:32.345Z,3.38
2022-09-15T16:06:53.797Z,4.60
2022-09-15T16:09:17.427Z,3.20
2022-09-15T16:11:40.504Z,2.83
2022-09-15T16:14:01.906Z,3.65
2022-09-15T16:16:25.528Z,3.33
2022-09-15T16:18:47.840Z,2.33
2022-09-15T16:21:29.281Z,2.20
2022-09-15T16:23:50.796Z,3.45
2022-09-15T16:26:17.927Z,5.07
2022-09-15T16:28:39.360Z,2.63
2022-09-15T16:31:00.857Z,5.25
2022-09-15T16:33:22.582Z,4.15
2022-09-15T16:35:55.117Z,2.38
2022-09-15T16:38:19.720Z,3.03
2022-09-15T16:40:41.158Z,4.53
2022-09-15T16:43:03.736Z,3.00
2022-09-15T16:45:39.777Z,3.08
2022-09-15T16:48:02.911Z,7.50
2022-09-15T16:50:24.735Z,4.65
2022-09-15T16:52:46.194Z,4.78
2022-09-15T16:55:20.300Z,4.72
2022-09-15T16:57:41.712Z,3.45
2022-09-15T17:00:04.385Z,4.20
2022-09-15T17:02:25.925Z,3.87
2022-09-15T17:04:47.426Z,2.53
2022-09-15T17:07:08.840Z,6.80
2022-09-15T17:09:30.238Z,5.97
2022-09-15T17:11:54.533Z,4.50
2022-09-15T17:14:16.963Z,4.33
2022-09-15T17:16:38.768Z,3.00
2022-09-15T17:19:00.241Z,3.77
2022-09-15T17:21:21.668Z,3.30
2022-09-15T17:23:46.353Z,2.87
2022-09-15T17:26:13.591Z,4.27
2022-09-15T17:28:36.580Z,5.43
2022-09-15T17:31:00.100Z,3.63
2022-09-15T17:33:21.624Z,2.90
2022-09-15T17:35:43.171Z,5.77
2022-09-15T17:38:06.583Z,4.10
2022-09-15T17:40:28.534Z,3.60
2022-09-15T17:42:50.063Z,5.17
2022-09-15T17:45:24.000Z,3.30
2022-09-15T17:47:45.794Z,3.90
2022-09-15T17:50:07.525Z,2.90
2022-09-15T17:52:29.090Z,6.30
2022-09-15T17:54:50.673Z,3.47
2022-09-15T17:57:12.082Z,3.47
2022-09-15T17:59:33.533Z,2.97
2022-09-15T18:01:55.002Z,6.00
2022-09-15T18:04:16.454Z,3.47
2022-09-15T18:06:40.232Z,2.37
2022-09-15T18:09:03.659Z,4.53
2022-09-15T18:11:27.118Z,6.10
2022-09-15T18:13:48.593Z,3.50
2022-09-15T18:16:14.163Z,6.23
2022-09-15T18:18:35.710Z,4.53
2022-09-15T18:20:58.350Z,4.30
2022-09-15T18:23:22.317Z,3.03
2022-09-15T18:25:44.617Z,6.53
2022-09-15T18:28:06.479Z,8.30
2022-09-15T18:30:31.105Z,6.70
2022-09-15T18:32:52.811Z,6.70
2022-09-15T18:35:18.668Z,5.03
2022-09-15T18:37:42.869Z,4.00
2022-09-15T18:40:08.217Z,5.33
2022-09-15T18:42:31.867Z,4.33
2022-09-15T18:44:53.556Z,6.23
2022-09-15T18:47:15.039Z,4.73
2022-09-15T18:49:36.446Z,3.40
2022-09-15T18:51:59.248Z,3.90
2022-09-15T18:54:20.710Z,6.50
2022-09-15T18:56:42.150Z,3.33
2022-09-15T18:59:03.614Z,5.13
2022-09-15T19:01:25.233Z,5.50
2022-09-15T19:03:46.801Z,3.00
2022-09-15T19:06:08.301Z,4.63
2022-09-15T19:08:29.738Z,4.07
2022-09-15T19:10:58.671Z,4.57
2022-09-15T19:13:20.092Z,3.80
2022-09-15T19:15:43.815Z,6.23
2022-09-15T19:18:05.904Z,5.83
2022-09-15T19:20:27.445Z,4.70
2022-09-15T19:22:51.239Z,5.47
2022-09-15T19:25:13.471Z,5.23
2022-09-15T19:27:35.880Z,6.53
2022-09-15T19:29:57.302Z,4.50
2022-09-15T19:32:19.390Z,4.20
2022-09-15T19:34:43.930Z,5.10
2022-09-15T19:37:11.390Z,4.87
2022-09-15T19:39:34.741Z,4.73
2022-09-15T19:41:56.186Z,8.87
2022-09-15T19:44:17.907Z,5.90
2022-09-15T19:46:39.359Z,4.33
2022-09-15T19:49:01.720Z,3.70
2022-09-15T19:51:23.878Z,4.17
2022-09-15T19:53:46.431Z,5.40
2022-09-15T19:56:13.132Z,6.97
2022-09-15T19:58:34.557Z,6.07
2022-09-15T20:00:56.928Z,6.00
2022-09-15T20:03:18.555Z,11.80
2022-09-15T20:05:39.975Z,4.63
2022-09-15T20:08:02.104Z,6.10
2022-09-15T20:10:23.506Z,5.87
2022-09-15T20:12:44.929Z,3.63
2022-09-15T20:15:07.044Z,6.73
2022-09-15T20:17:28.648Z,4.60
2022-09-15T20:19:50.196Z,5.13
2022-09-15T20:22:11.695Z,6.60
2022-09-15T20:24:33.111Z,5.93
2022-09-15T20:26:54.551Z,3.10
2022-09-15T20:29:16.284Z,8.13
2022-09-15T20:31:37.918Z,6.63
2022-09-15T20:34:00.663Z,6.83
2022-09-15T20:36:24.883Z,6.47
2022-09-15T20:38:47.138Z,7.40
2022-09-15T20:41:10.319Z,5.57
2022-09-15T20:43:31.773Z,4.67
2022-09-15T20:45:57.910Z,5.27
2022-09-15T20:48:19.352Z,4.50
2022-09-15T20:50:40.751Z,8.63
2022-09-15T20:53:02.160Z,8.13
2022-09-15T20:55:25.504Z,8.27
2022-09-15T20:57:46.937Z,6.53
2022-09-15T21:00:09.926Z,6.90
2022-09-15T21:02:31.774Z,7.87
2022-09-15T21:04:53.229Z,5.23
2022-09-15T21:07:14.643Z,5.80
2022-09-15T21:09:36.041Z,7.93
2022-09-15T21:11:57.581Z,4.70
2022-09-15T21:14:19.003Z,6.40
2022-09-15T21:16:41.448Z,7.23
2022-09-15T21:19:03.602Z,5.30
2022-09-15T21:21:28.323Z,6.97
2022-09-15T21:23:55.072Z,6.00
2022-09-15T21:26:19.266Z,7.87
2022-09-15T21:28:42.659Z,6.63
2022-09-15T21:31:10.153Z,5.83
2022-09-15T21:33:31.934Z,7.23
2022-09-15T21:36:07.289Z,5.23
2022-09-15T21:38:28.697Z,6.07
2022-09-15T21:40:50.412Z,6.83
2022-09-15T21:43:11.842Z,4.40
2022-09-15T21:45:33.290Z,6.07
2022-09-15T21:47:54.739Z,5.33
2022-09-15T21:50:16.187Z,5.00
2022-09-15T21:52:38.182Z,9.33
2022-09-15T21:54:59.594Z,8.60
2022-09-15T21:57:21.119Z,7.90
2022-09-15T21:59:42.533Z,7.43
2022-09-15T22:02:04.018Z,8.67
2022-09-15T22:04:25.684Z,4.70
2022-09-15T22:06:50.075Z,7.80
2022-09-15T22:09:15.549Z,6.70
2022-09-15T22:11:37.259Z,5.70
2022-09-15T22:13:59.048Z,5.43
2022-09-15T22:16:23.839Z,6.00
2022-09-15T22:18:45.972Z,4.90
2022-09-15T22:21:11.394Z,8.80
2022-09-15T22:23:32.973Z,8.00
2022-09-15T22:25:54.387Z,7.90
2022-09-15T22:28:16.870Z,7.47
2022-09-15T22:30:38.275Z,6.27
2022-09-15T22:32:59.700Z,5.57
2022-09-15T22:35:21.117Z,5.80
2022-09-15T22:37:42.629Z,9.63
2022-09-15T22:40:04.404Z,7.77
2022-09-15T22:42:26.436Z,10.33
2022-09-15T22:44:47.969Z,7.13
2022-09-15T22:47:10.180Z,8.53
2022-09-15T22:49:32.561Z,4.90
2022-09-15T22:51:54.011Z,6.37
2022-09-15T22:54:15.445Z,7.20
2022-09-15T22:56:36.887Z,6.27
2022-09-15T22:58:58.819Z,6.80
2022-09-15T23:01:23.598Z,6.60
2022-09-15T23:03:49.226Z,5.77
2022-09-15T23:06:10.741Z,6.37
2022-09-15T23:08:32.863Z,9.30
2022-09-15T23:11:04.856Z,8.57
2022-09-15T23:13:26.265Z,9.23
2022-09-15T23:15:49.354Z,6.37
2022-09-15T23:18:10.764Z,13.47
2022-09-15T23:20:32.522Z,8.17
2022-09-15T23:22:53.935Z,7.77
2022-09-15T23:25:15.414Z,7.93
2022-09-15T23:27:36.944Z,6.43
2022-09-15T23:29:58.367Z,4.93
2022-09-15T23:32:19.766Z,9.47
2022-09-15T23:34:41.173Z,6.63
2022-09-15T23:37:02.909Z,7.03
2022-09-15T23:39:24.430Z,6.73
2022-09-15T23:41:45.854Z,8.53
2022-09-15T23:44:07.813Z,5.40
2022-09-15T23:46:29.886Z,7.83
2022-09-15T23:48:51.367Z,7.80
2022-09-15T23:51:12.915Z,8.20
2022-09-15T23:53:35.050Z,7.47
2022-09-15T23:55:56.843Z,7.73
2022-09-15T23:58:18.775Z,7.27
